Aviation Digital Data Service (ADDS)

Output produced by METARs form (1132 UTC 19 January 2019)
found at http://www.aviationweather.gov/metar/data/
 
KAFO 191115Z AUTO 00000KT 10SM SCT033 M08/M11 A3031 RMK AO2
K46U 191115Z AUTO 00000KT 10SM OVC034 M05/M06 A3034 RMK A01
KBPI 191053Z AUTO 05003KT 10SM CLR M18/M19 A3028 RMK AO2 SLP311 T11781194
KBPI 191122Z 1912/2012 35008KT P6SM FEW120 SCT200 
     FM191400 VRB04KT P6SM BKN070 
     FM200300 VRB03KT P6SM FEW008 BKN025 
     FM201000 VRB03KT P6SM VCFG SCT004 BKN020
       
KBYG 191053Z AUTO 24005KT 10SM CLR M04/M09 A3009 RMK AO2 SLP224 T10441089
KCPR 191053Z AUTO 22009KT 10SM CLR M04/M09 A3016 RMK AO2 SLP234 T10391089
KCPR 191122Z 1912/2012 23010KT P6SM SCT090 
     FM191400 24015G25KT P6SM SCT250 
     FM191800 24025G35KT P6SM BKN200 
     FM200000 22020G28KT P6SM BKN090
       
KCYS 191053Z AUTO 30012G21KT 10SM CLR M03/M09 A3013 RMK AO2 SLP235 T10281089
KCYS 191120Z 1912/2012 32011G20KT P6SM SKC 
     FM191600 29020G30KT P6SM FEW250 
     FM200100 27015KT P6SM SCT200
       
KCOD 191056Z AUTO 26017G26KT 10SM CLR 02/M12 A3011 RMK AO2 PK WND 26026/1048 SLP212 T00171122 FZRANO
KCOD 191122Z 1912/2012 26014G25KT P6SM FEW090 SCT250 
     FM200600 22009KT P6SM SCT080 BKN110 WS020/26030KT AMD LTD TO CLD VIS AND
WIND
       
KU68 191115Z AUTO 09003KT 10SM CLR M07/M07 A3014 RMK AO2
KDWX 191115Z AUTO 09003KT 10SM SCT001 BKN018 M16/M18 A3034 RMK AO2 T11601177
KDGW 191053Z AUTO 00000KT 10SM CLR M09/M09 A3016 RMK AO2 SLP257 I1/// T10891094 $
KDUB 191115Z AUTO 33013G20KT 10SM CLR M06/M12 A3014 RMK AO2
KEVW 191053Z AUTO 22010KT 10SM FEW001 M09/M11 A3030 RMK AO2 SLP298 T10891111
KEVW 191131Z 1912/2012 22010KT P6SM BCFG SCT002 
     FM191300 22010KT P6SM VCSH SCT025 BKN040 
     FM200000 22010KT P6SM SCT020 BKN050
       
KGCC 191053Z AUTO 24004KT 10SM CLR M04/M07 A3012 RMK AO2 SLP239 T10441067
KGCC 191120Z 1912/2012 23008KT P6SM SCT200 
     FM200200 22012KT P6SM BKN070
       
KW43 191115Z AUTO 22009KT 10SM OVC060 M02/M05 A3012 RMK AO2
KJAC 191056Z AUTO 24007KT 10SM FEW043 M06/M09 A3027 RMK AO2 SLP299 T10611089 FZRANO
KJAC 191122Z 1912/2012 23010KT P6SM VCSH SCT018 OVC040 
     FM191300 20010KT 3SM -SN SCT015 OVC025 
     FM200200 20011KT 2SM -SN OVC015 AMD LTD TO CLD VIS AND WIND
       
KLND 191053Z AUTO 31007KT 10SM CLR M09/M14 A3015 RMK AO2 SLP244 T10891144
KLND 191122Z 1912/2012 VRB05KT P6SM SCT200 
     FM200200 23009KT P6SM SCT080 BKN150 WS020/28040KT
       
KLAR 191053Z AUTO 22009KT 10SM CLR M10/M13 A3015 RMK AO2 SLP255 T11001128
KLAR 191120Z 1912/2012 26010KT P6SM SKC 
     FM191400 25013G23KT P6SM SKC 
     FM191700 25022G35KT P6SM SCT200 
     FM200000 24014KT P6SM BKN120
       
KECS 191115Z AUTO 00000KT 10SM BKN065 M09/M09 A3017 RMK AO2
K82V 191115Z AUTO 33007KT 10SM CLR M04/M08 A3016 RMK AO2
KPNA 191115Z AUTO 31003KT 10SM SCT001 M18/M20 A3027 RMK AO2 TSNO
KPNA 191122Z 1912/2012 29009KT P6SM FEW120 SCT200 
     FM191300 30007KT P6SM BKN060 
     FM200200 29004KT P6SM SCT008 BKN025 
     FM200600 VRB03KT P6SM VCFG SCT004 BKN015 AMD LTD TO CLD VIS AND WIND
       
KPOY 191115Z AUTO 19011KT 10SM CLR M03/M09 A3007 RMK AO2
KRWL 191053Z AUTO 25028G33KT 6SM -SN CLR M07/M09 A3020 RMK AO2 PK WND 25033/1053 SNB44 SLP264 P0000 T10671094
KRWL 191120Z 1912/2012 24011G21KT P6SM FEW150 
     FM191700 24025G36KT 6SM BLSN BKN150 
     FM200000 24015G25KT P6SM BKN080 OVC100
       
KRIW 191053Z AUTO 26008KT 10SM CLR M07/M12 A3014 RMK AO2 SLP239 T10721117
KRIW 191122Z 1912/2012 31011KT P6SM SCT200 
     FM191500 VRB06KT P6SM BKN200 
     FM200900 26006KT P6SM BKN090
       
KRKS 191054Z AUTO 26018KT 10SM CLR M08/M10 A3028 RMK AO2 SLP303 T10781100
KRKS 191122Z 1912/2012 25015KT P6SM SCT110 BKN200 
     FM191400 25017G25KT P6SM BKN080 
     FM191800 26024G32KT P6SM SCT080 BKN150 
     FM200000 25017KT P6SM BKN070 
     FM200600 23009KT P6SM SCT025 BKN040
       
KSAA 191115Z AUTO 28005KT 10SM CLR M06/M10 A3026 RMK AO2
KSHR 191053Z AUTO 00000KT 10SM CLR M07/M09 A3011 RMK AO2 SLP240 T10721094
KSHR 190529Z 1906/2006 VRB04KT P6SM BKN080 
     FM190800 VRB03KT P6SM SCT080 
     FM192300 30008KT P6SM VCSH BKN050 OVC120
       
KTOR 191053Z AUTO 12005KT 9SM FEW060 M07/M07 A3017 RMK AO2 SLP249 T10671072
KEAN 191115Z AUTO 24014G19KT 10SM CLR M01/M08 A3017 RMK AO2 T10121080
KWRL 191053Z AUTO 19006KT 10SM CLR M11/M12 A3015 RMK AO2 SLP266 T11111117
KWRL 191122Z 1912/2012 16006KT P6SM VCFG SCT003 
     FM191600 15007KT P6SM BKN200 
     FM200600 16006KT P6SM BKN080